Accueil
METAR-TAF:

METAR-TAF

Aéroports :

Aéroport international Jinnah

Karâchi, Pakistan

latitude: 24-54N, longitude: 067-08E, altitude: 21 m

Observation

Le bulletin a été fait il y a 40 minutes, à 10:25 UTC
Vent calme
Température 27°C
Humidité 18%
Pression 1016 hPa
Visibilité: 7000 m

METAR: OPKC 161025Z 00000KT 7000 NSC 27/01 Q1016 NOSIG

Heure: 16:05 (11:05 UTC)

Prévision

Le bulletin a été fait il y a 4 heures et 35 minutes, à 06:30 UTC
Prévision valable du 16 à 09 UTC au 16 à 18 UTC
Vent 8 kt de ouest/sud-ouest
Visibilité: 6000 m

TAF: OPKC 160630Z 1609/1618 24008KT 6000 NSC

Observations et prévisions météorologiques de plus de 4000 aéroports (messages METAR et TAF).

Les stations disponibles sont représentées par des disques jaunes et rouges sur la carte.

Passer la souris dessus pour voir le nom de la station.

Cliquer dessus pour voir les observations et prévisions météorologiques.

Pour changer de carte: cliquez sur les boutons verts avec une croix noire pour zoomer, sur le bouton vert avec un tiret pour effectuer un zoom arrière, ou sur les flèches vertes pour les cartes adjacentes.


METAR-TAF: